Time;durP1;ratioP1;P1;durP2;ratioP2;P2;SDS_P1;SDS_P2;PMS_P1;PMS_P2;Temp;Humidity;BMP_temperature;BMP_pressure;BME280_temperature;BME280_humidity;BME280_pressure;Samples;Min_cycle;Max_cycle;Signal;HPM_P1;HPM_P2
2024/01/12 00:04:56;;;;;;;9.98;8.25;;;;;;;11.27;100.00;101303.69;10531406;28;20129;-78
2024/01/12 00:10:19;;;;;;;13.25;10.07;;;;;;;11.37;100.00;101308.28;10517679;28;20048;-78
2024/01/12 00:15:45;;;;;;;5.60;5.00;;;;;;;11.28;100.00;101299.28;10517467;28;20101;-78
2024/01/12 00:21:09;;;;;;;5.67;4.60;;;;;;;11.36;100.00;101293.28;10503245;28;20517;-78
2024/01/12 00:26:32;;;;;;;10.25;4.55;;;;;;;11.50;100.00;101289.16;10517152;28;20044;-78
2024/01/12 00:31:57;;;;;;;31.08;22.50;;;;;;;11.65;100.00;101290.34;10530975;28;20089;-78
2024/01/12 00:37:19;;;;;;;16.63;11.88;;;;;;;11.64;100.00;101296.47;10530454;28;20733;-77
2024/01/12 00:42:42;;;;;;;11.90;8.77;;;;;;;11.57;100.00;101287.53;10530240;28;20526;-78
2024/01/12 00:48:07;;;;;;;8.82;6.95;;;;;;;11.64;100.00;101291.19;10516889;28;20055;-77
2024/01/12 00:53:34;;;;;;;30.45;13.93;;;;;;;11.64;100.00;101281.50;10530352;28;20165;-78
2024/01/12 00:58:57;;;;;;;9.15;5.68;;;;;;;11.60;100.00;101274.41;10529431;28;20066;-77
2024/01/12 01:04:21;;;;;;;7.57;4.63;;;;;;;11.40;100.00;101259.88;10502005;28;20059;-78
2024/01/12 01:09:44;;;;;;;5.68;4.43;;;;;;;11.37;100.00;101249.25;10514198;28;20052;-78
2024/01/12 01:15:07;;;;;;;5.25;4.20;;;;;;;11.66;100.00;101248.06;10530531;28;20063;-78
2024/01/12 01:20:33;;;;;;;5.95;5.18;;;;;;;11.87;100.00;101231.75;10521615;28;20059;-78
2024/01/12 01:25:55;;;;;;;26.13;17.77;;;;;;;12.00;100.00;101239.03;10534602;28;20052;-78
2024/01/12 01:31:17;;;;;;;7.60;6.35;;;;;;;12.03;100.00;101228.47;10517091;28;20044;-77
2024/01/12 01:36:41;;;;;;;8.27;4.38;;;;;;;11.94;100.00;101223.03;10536332;28;20460;-77
2024/01/12 01:42:04;;;;;;;7.35;4.38;;;;;;;12.05;100.00;101213.53;10516649;28;20074;-77
2024/01/12 01:47:28;;;;;;;5.78;4.82;;;;;;;11.98;100.00;101207.25;10512429;28;20080;-77
2024/01/12 01:52:53;;;;;;;4.97;4.47;;;;;;;11.93;100.00;101195.69;10535437;28;20051;-78
2024/01/12 01:58:17;;;;;;;8.07;5.35;;;;;;;11.84;100.00;101194.63;10521326;28;20374;-78
2024/01/12 02:03:42;;;;;;;6.43;4.85;;;;;;;11.73;100.00;101199.72;10534868;28;20902;-76
2024/01/12 02:09:07;;;;;;;4.70;4.30;;;;;;;11.44;100.00;101208.84;10520628;28;20052;-76
2024/01/12 02:14:30;;;;;;;5.68;5.00;;;;;;;11.10;100.00;101194.97;10543567;28;20051;-77
2024/01/12 02:19:58;;;;;;;6.35;4.60;;;;;;;11.18;100.00;101187.19;10533955;28;20052;-78
2024/01/12 02:25:23;;;;;;;5.20;4.45;;;;;;;11.28;100.00;101165.41;10507278;28;20125;-78
2024/01/12 02:30:46;;;;;;;6.72;4.97;;;;;;;11.32;100.00;101167.22;10533575;28;20036;-77
2024/01/12 02:36:08;;;;;;;6.28;5.10;;;;;;;11.33;100.00;101160.19;10548478;28;20487;-77
2024/01/12 02:41:32;;;;;;;8.07;4.85;;;;;;;11.30;100.00;101160.09;10518822;28;20133;-78
2024/01/12 02:46:55;;;;;;;22.17;15.95;;;;;;;11.36;100.00;101166.41;10529893;28;20051;-78
2024/01/12 02:52:17;;;;;;;7.32;5.35;;;;;;;11.35;100.00;101153.19;10519686;28;20043;-78
2024/01/12 02:57:41;;;;;;;6.25;5.63;;;;;;;11.32;100.00;101156.66;10505914;28;20040;-78
2024/01/12 03:03:04;;;;;;;8.55;5.90;;;;;;;11.36;100.00;101145.25;10512441;28;20062;-78
2024/01/12 03:08:26;;;;;;;5.00;3.92;;;;;;;11.33;100.00;101129.38;10537147;28;20047;-78
2024/01/12 03:13:50;;;;;;;5.57;4.20;;;;;;;11.41;100.00;101129.50;10534146;28;20136;-78
2024/01/12 03:19:13;;;;;;;8.98;6.75;;;;;;;11.44;100.00;101124.25;10547874;28;20039;-78
2024/01/12 03:24:36;;;;;;;9.32;6.25;;;;;;;11.56;100.00;101116.53;10518130;28;20047;-78
2024/01/12 03:30:01;;;;;;;9.23;6.93;;;;;;;11.57;100.00;101124.50;10498085;28;20102;-78
2024/01/12 03:35:24;;;;;;;6.97;6.03;;;;;;;11.50;100.00;101119.06;10532191;28;20442;-77
2024/01/12 03:40:46;;;;;;;8.02;5.22;;;;;;;11.52;100.00;101118.25;10531852;28;20048;-78
2024/01/12 03:46:10;;;;;;;9.30;8.20;;;;;;;11.54;100.00;101115.63;10508967;28;20044;-77
2024/01/12 03:51:33;;;;;;;7.72;6.07;;;;;;;11.62;100.00;101115.78;10518052;28;20624;-78
2024/01/12 03:56:55;;;;;;;7.93;6.50;;;;;;;11.71;100.00;101108.88;10526906;28;20051;-78
2024/01/12 04:02:19;;;;;;;6.57;5.88;;;;;;;11.71;100.00;101106.22;10534888;28;20052;-78
2024/01/12 04:07:42;;;;;;;5.28;4.78;;;;;;;11.64;100.00;101101.69;10517628;28;20048;-78
2024/01/12 04:13:05;;;;;;;8.02;5.88;;;;;;;11.62;100.00;101074.31;10531294;28;20043;-78
2024/01/12 04:18:29;;;;;;;6.55;5.13;;;;;;;11.47;100.00;101066.16;10531475;28;20131;-78
2024/01/12 04:23:52;;;;;;;8.75;7.70;;;;;;;11.63;100.00;101062.91;10536671;28;20051;-77
2024/01/12 04:29:14;;;;;;;6.00;4.70;;;;;;;11.65;100.00;101044.41;10542804;28;20056;-78
2024/01/12 04:34:39;;;;;;;8.07;6.00;;;;;;;11.66;100.00;101051.50;10531655;28;20052;-78
2024/01/12 04:40:03;;;;;;;6.70;5.55;;;;;;;11.63;100.00;101036.44;10516173;28;20551;-77
2024/01/12 04:45:25;;;;;;;15.02;9.30;;;;;;;11.68;100.00;101042.72;10520099;28;20047;-78
2024/01/12 04:50:52;;;;;;;7.25;5.53;;;;;;;11.74;100.00;101020.81;10539122;28;20087;-78
2024/01/12 04:56:15;;;;;;;5.45;4.38;;;;;;;11.67;100.00;101011.84;10524571;28;20125;-78
2024/01/12 05:01:38;;;;;;;7.57;4.30;;;;;;;11.61;100.00;101002.94;10537585;28;20047;-77
2024/01/12 05:07:01;;;;;;;28.55;16.27;;;;;;;11.64;100.00;100997.69;10550075;28;20044;-78
2024/01/12 05:12:24;;;;;;;17.35;12.23;;;;;;;11.60;100.00;100991.47;10522191;28;20555;-78
2024/01/12 05:17:47;;;;;;;10.00;6.88;;;;;;;11.57;100.00;100991.41;10537690;28;20677;-78
2024/01/12 05:23:12;;;;;;;21.52;14.75;;;;;;;11.65;100.00;100996.81;10523450;28;20101;-78
2024/01/12 05:28:35;;;;;;;15.10;9.85;;;;;;;11.62;100.00;101000.28;10515914;28;20055;-78
2024/01/12 05:33:58;;;;;;;13.43;9.45;;;;;;;11.71;100.00;100997.78;10508464;28;20562;-77
2024/01/12 05:39:22;;;;;;;12.30;10.02;;;;;;;11.89;100.00;100991.91;10535001;28;20062;-78
2024/01/12 05:44:44;;;;;;;18.33;13.85;;;;;;;11.94;100.00;101001.72;10496461;28;20151;-78
2024/01/12 05:50:08;;;;;;;18.40;13.40;;;;;;;11.85;100.00;101003.31;10522153;28;20492;-78
2024/01/12 05:55:32;;;;;;;9.95;6.80;;;;;;;11.92;100.00;100994.59;10518595;28;20051;-78
2024/01/12 06:00:55;;;;;;;12.02;7.13;;;;;;;11.97;100.00;100977.03;10494012;28;20047;-79
2024/01/12 06:06:17;;;;;;;8.73;6.28;;;;;;;11.93;100.00;100972.59;10521902;28;20054;-78
2024/01/12 06:11:44;;;;;;;11.68;8.73;;;;;;;11.91;100.00;100937.28;10521791;28;20048;-78
2024/01/12 06:17:08;;;;;;;166.10;119.88;;;;;;;12.08;100.00;100933.06;10535612;28;20131;-79
2024/01/12 06:22:30;;;;;;;49.75;38.55;;;;;;;12.31;100.00;100933.34;10524582;28;20056;-78
2024/01/12 06:27:54;;;;;;;7.95;6.38;;;;;;;12.39;100.00;100947.56;10534632;28;20060;-78
2024/01/12 06:33:17;;;;;;;9.50;7.13;;;;;;;12.67;100.00;100954.00;10520709;28;20047;-78
2024/01/12 06:38:39;;;;;;;80.03;62.13;;;;;;;12.77;100.00;100940.00;10520348;28;20070;-79
2024/01/12 06:44:03;;;;;;;34.25;24.25;;;;;;;12.92;100.00;100942.81;10506585;28;20047;-78
2024/01/12 06:49:26;;;;;;;8.45;5.80;;;;;;;12.94;100.00;100937.50;10505927;28;20131;-78
2024/01/12 06:54:48;;;;;;;9.73;6.90;;;;;;;13.03;100.00;100932.28;10534779;28;20060;-78
2024/01/12 07:00:13;;;;;;;28.75;22.50;;;;;;;13.21;100.00;100916.56;10517044;28;20043;-78
2024/01/12 07:05:37;;;;;;;92.70;66.32;;;;;;;13.37;100.00;100914.91;10532506;28;20097;-78
2024/01/12 07:11:00;;;;;;;169.43;129.80;;;;;;;13.28;100.00;100910.41;10533987;28;20036;-78
2024/01/12 07:16:24;;;;;;;123.55;102.43;;;;;;;13.57;100.00;100911.50;10533519;28;20488;-78
2024/01/12 07:21:46;;;;;;;103.78;75.93;;;;;;;13.92;100.00;100926.69;10518743;28;20040;-78
2024/01/12 07:27:09;;;;;;;145.85;116.90;;;;;;;14.22;100.00;100932.16;10531825;28;20043;-77
2024/01/12 07:32:34;;;;;;;58.83;44.72;;;;;;;14.44;100.00;100926.94;10532001;28;20055;-77
2024/01/12 07:37:56;;;;;;;43.38;36.40;;;;;;;14.53;100.00;100919.84;10532356;28;20080;-77
2024/01/12 07:43:19;;;;;;;37.83;29.58;;;;;;;14.63;100.00;100926.97;10531417;28;20048;-78
2024/01/12 07:48:47;;;;;;;118.10;89.57;;;;;;;14.75;100.00;100927.00;10495414;28;20047;-78
2024/01/12 07:54:10;;;;;;;101.13;82.07;;;;;;;14.95;100.00;100926.13;10530863;28;20081;-78
2024/01/12 07:59:32;;;;;;;60.15;49.30;;;;;;;15.19;100.00;100920.78;10500646;28;20455;-77
2024/01/12 08:04:56;;;;;;;23.27;19.27;;;;;;;15.57;100.00;100918.09;10515997;28;20060;-77
2024/01/12 08:10:19;;;;;;;12.10;10.38;;;;;;;16.20;100.00;100903.69;10528581;28;20040;-77
2024/01/12 08:15:42;;;;;;;7.85;7.05;;;;;;;17.29;100.00;100912.66;10518837;28;20113;-77
2024/01/12 08:21:06;;;;;;;8.95;6.13;;;;;;;18.13;100.00;100903.75;10511857;28;20456;-77
2024/01/12 08:26:29;;;;;;;8.63;6.30;;;;;;;17.88;100.00;100887.13;10522786;28;20052;-77
2024/01/12 08:31:51;;;;;;;5.03;4.53;;;;;;;17.69;100.00;100891.81;10521914;28;20051;-78
2024/01/12 08:37:15;;;;;;;4.28;3.35;;;;;;;17.82;100.00;100892.56;10526593;28;20062;-77
2024/01/12 08:42:39;;;;;;;2.40;2.15;;;;;;;18.37;100.00;100886.50;10512722;28;20565;-77
2024/01/12 08:48:01;;;;;;;2.10;1.90;;;;;;;19.00;100.00;100873.94;10512037;28;20051;-78
2024/01/12 08:53:25;;;;;;;2.33;1.85;;;;;;;19.57;100.00;100855.94;10530104;28;20047;-78
2024/01/12 08:58:47;;;;;;;2.05;1.85;;;;;;;19.49;100.00;100857.91;10529268;28;20048;-78
2024/01/12 09:04:10;;;;;;;1.70;1.60;;;;;;;19.74;100.00;100839.53;10520564;28;20397;-77
2024/01/12 09:09:34;;;;;;;2.03;1.67;;;;;;;20.11;100.00;100837.81;10529278;28;20139;-76
2024/01/12 09:14:56;;;;;;;1.83;1.58;;;;;;;19.68;100.00;100827.16;10528294;28;20047;-77
2024/01/12 09:20:19;;;;;;;1.77;1.30;;;;;;;19.25;100.00;100820.84;10528097;28;20044;-77
2024/01/12 09:25:42;;;;;;;2.28;1.40;;;;;;;18.95;100.00;100812.47;10515699;28;20052;-77
2024/01/12 09:31:05;;;;;;;2.78;2.10;;;;;;;19.15;100.00;100804.09;10518828;28;20050;-77
2024/01/12 09:36:28;;;;;;;4.15;2.42;;;;;;;19.94;100.00;100778.38;10489678;28;20036;-77
2024/01/12 09:41:57;;;;;;;6.95;4.57;;;;;;;20.25;100.00;100787.47;10538640;28;20052;-77
2024/01/12 09:47:19;;;;;;;2.25;1.38;;;;;;;20.31;100.00;100775.69;10535813;28;20064;-76
2024/01/12 09:52:42;;;;;;;4.20;3.75;;;;;;;20.27;100.00;100769.53;10515171;28;20035;-77
2024/01/12 09:58:10;;;;;;;1.65;1.50;;;;;;;20.23;100.00;100750.88;10540083;28;20063;-77
2024/01/12 10:03:33;;;;;;;;;;;;;;;20.10;100.00;100750.28;10550770;28;20114;-77
2024/01/12 10:08:55;;;;;;;8.18;5.15;;;;;;;20.01;100.00;100734.44;10494042;28;19920;-77
2024/01/12 10:14:23;;;;;;;21.70;19.45;;;;;;;20.08;100.00;100740.53;10515554;28;20135;-76
2024/01/12 10:19:45;;;;;;;19.52;13.90;;;;;;;20.27;100.00;100721.28;10521265;28;20052;-77
2024/01/12 10:25:08;;;;;;;6.93;3.78;;;;;;;20.18;100.00;100720.63;10535087;28;20044;-77
2024/01/12 10:30:32;;;;;;;20.55;8.50;;;;;;;20.35;100.00;100718.41;10493400;28;20053;-77
2024/01/12 10:36:06;;;;;;;5.47;3.45;;;;;;;20.80;100.00;100712.78;10507100;28;20354;-78
2024/01/12 10:41:30;;;;;;;9.77;5.45;;;;;;;20.94;100.00;100713.28;10505665;28;20057;-77
2024/01/12 10:47:02;;;;;;;28.10;15.60;;;;;;;21.01;100.00;100701.44;10546585;28;20563;-76
2024/01/12 10:52:39;;;;;;;12.70;7.85;;;;;;;22.66;100.00;100696.22;10519433;28;20299;-78
2024/01/12 10:58:03;;;;;;;8.93;6.07;;;;;;;22.54;100.00;100693.97;10533947;28;20048;-77
2024/01/12 11:03:28;;;;;;;10.45;6.70;;;;;;;22.01;100.00;100678.75;10505730;28;20145;-77
2024/01/12 11:08:54;;;;;;;5.07;3.80;;;;;;;21.70;100.00;100666.28;10530757;28;20052;-77
2024/01/12 11:14:19;;;;;;;12.38;7.78;;;;;;;21.66;100.00;100663.75;10518313;28;20064;-77
2024/01/12 11:19:44;;;;;;;14.60;10.93;;;;;;;21.51;100.00;100657.03;10537856;28;20052;-75
2024/01/12 11:25:07;;;;;;;4.22;3.83;;;;;;;21.28;100.00;100659.53;10533076;28;20570;-76
2024/01/12 11:30:30;;;;;;;6.97;5.45;;;;;;;21.03;100.00;100649.47;10495426;28;20048;-75
2024/01/12 11:35:54;;;;;;;2.92;2.65;;;;;;;20.85;100.00;100641.97;10502571;28;20044;-73
2024/01/12 11:41:17;;;;;;;6.75;3.67;;;;;;;20.53;100.00;100652.72;10540237;28;20060;-75
2024/01/12 11:46:41;;;;;;;4.78;2.38;;;;;;;20.34;100.00;100656.81;10520371;28;20051;-74
2024/01/12 11:52:07;;;;;;;51.28;37.60;;;;;;;19.94;100.00;100648.88;10488494;28;20064;-75
2024/01/12 11:57:29;;;;;;;2.97;2.45;;;;;;;19.52;100.00;100635.56;10502749;28;20076;-75
2024/01/12 12:02:52;;;;;;;4.95;2.47;;;;;;;19.13;100.00;100628.38;10515166;28;20856;-74
2024/01/12 12:08:16;;;;;;;5.28;4.05;;;;;;;18.98;100.00;100622.44;10509185;28;20044;-77
2024/01/12 12:13:39;;;;;;;4.63;3.22;;;;;;;18.84;100.00;100616.50;10520260;28;20036;-76
2024/01/12 12:19:02;;;;;;;6.20;4.07;;;;;;;18.84;100.00;100610.28;10517532;28;20549;-76
2024/01/12 12:24:26;;;;;;;2.33;1.95;;;;;;;19.09;100.00;100617.75;10508325;28;20051;-76
2024/01/12 12:29:51;;;;;;;5.18;3.58;;;;;;;19.45;100.00;100620.50;10507410;28;20494;-75
2024/01/12 12:35:14;;;;;;;3.92;2.65;;;;;;;19.72;100.00;100608.31;10492216;28;20044;-75
2024/01/12 12:40:38;;;;;;;2.72;1.30;;;;;;;19.95;100.00;100611.31;10527790;28;20067;-74
2024/01/12 12:46:01;;;;;;;0.98;0.90;;;;;;;19.75;100.00;100602.88;10513220;28;20051;-75
2024/01/12 12:51:23;;;;;;;1.73;1.10;;;;;;;19.90;100.00;100581.06;10508327;28;20036;-74
2024/01/12 12:56:47;;;;;;;7.60;2.75;;;;;;;19.21;100.00;100599.66;10517980;28;20052;-75
2024/01/12 13:02:12;;;;;;;9.65;5.20;;;;;;;18.13;100.00;100610.69;10500300;28;20558;-79
2024/01/12 13:07:35;;;;;;;8.88;5.05;;;;;;;17.01;100.00;100639.09;10533909;28;20455;-75
2024/01/12 13:13:00;;;;;;;12.98;10.13;;;;;;;16.33;100.00;100640.75;10508079;28;20136;-79
2024/01/12 13:18:22;;;;;;;15.93;12.48;;;;;;;16.28;100.00;100634.53;10533009;28;20063;-78
2024/01/12 13:23:45;;;;;;;12.77;9.82;;;;;;;16.51;100.00;100637.00;10501349;28;20078;-80
2024/01/12 13:29:09;;;;;;;20.95;17.10;;;;;;;16.57;100.00;100611.16;10525027;28;20052;-81
2024/01/12 13:34:31;;;;;;;14.13;9.07;;;;;;;16.14;100.00;100618.72;10536921;28;20081;-76
2024/01/12 13:39:54;;;;;;;6.30;4.82;;;;;;;15.81;100.00;100608.38;10500524;28;20578;-77
2024/01/12 13:45:18;;;;;;;15.80;12.95;;;;;;;15.57;100.00;100613.84;10537448;28;20496;-77
2024/01/12 13:50:41;;;;;;;5.88;3.70;;;;;;;15.78;100.00;100616.38;10551021;28;20052;-77
2024/01/12 13:56:04;;;;;;;7.90;6.40;;;;;;;15.88;100.00;100623.41;10514070;28;20101;-76
2024/01/12 14:01:29;;;;;;;127.05;85.55;;;;;;;15.89;100.00;100626.03;10512145;28;20392;-77
2024/01/12 14:06:52;;;;;;;54.83;45.33;;;;;;;15.99;100.00;100633.94;10525985;28;20049;-76
2024/01/12 14:12:14;;;;;;;32.75;23.20;;;;;;;16.23;100.00;100621.28;10521553;28;20048;-75
2024/01/12 14:17:39;;;;;;;27.77;22.75;;;;;;;16.48;100.00;100621.91;10532748;28;20105;-74
2024/01/12 14:23:01;;;;;;;43.20;33.85;;;;;;;16.52;100.00;100630.75;10526155;28;20043;-75
2024/01/12 14:28:24;;;;;;;11.73;9.80;;;;;;;15.94;100.00;100631.34;10507746;28;20048;-74
2024/01/12 14:33:48;;;;;;;7.75;5.80;;;;;;;15.73;100.00;100629.72;10524697;28;20056;-75
2024/01/12 14:39:10;;;;;;;8.23;5.45;;;;;;;15.86;100.00;100620.75;10515021;28;20755;-73
2024/01/12 14:44:33;;;;;;;17.17;14.90;;;;;;;15.97;100.00;100622.41;10531093;28;20043;-74
2024/01/12 14:49:57;;;;;;;19.77;13.40;;;;;;;15.84;100.00;100606.56;10532046;28;20403;-74
2024/01/12 14:55:20;;;;;;;19.25;17.23;;;;;;;15.71;100.00;100610.22;10521330;28;20182;-74
2024/01/12 15:00:42;;;;;;;22.88;19.30;;;;;;;15.59;100.00;100618.28;10527077;28;20078;-74
2024/01/12 15:06:07;;;;;;;46.67;34.35;;;;;;;15.51;100.00;100626.28;10531774;28;20040;-75
2024/01/12 15:11:30;;;;;;;26.02;21.02;;;;;;;15.47;100.00;100621.00;10531095;28;20051;-74
2024/01/12 15:16:52;;;;;;;33.70;25.67;;;;;;;15.39;100.00;100629.03;10532478;28;20555;-74
2024/01/12 15:22:16;;;;;;;33.22;26.67;;;;;;;15.33;100.00;100629.06;10532085;28;20048;-74
2024/01/12 15:27:39;;;;;;;25.95;22.00;;;;;;;15.22;100.00;100633.56;10530864;28;20048;-74
2024/01/12 15:33:02;;;;;;;32.00;24.55;;;;;;;15.16;100.00;100638.94;10530431;28;20052;-74
2024/01/12 15:38:26;;;;;;;15.48;10.35;;;;;;;15.10;100.00;100630.94;10516493;28;20040;-73
2024/01/12 15:43:48;;;;;;;6.45;4.80;;;;;;;15.00;100.00;100643.44;10526179;28;20160;-74
2024/01/12 15:49:11;;;;;;;23.88;16.55;;;;;;;14.93;100.00;100633.72;10522626;28;20396;-74
2024/01/12 15:54:35;;;;;;;6.68;5.95;;;;;;;14.89;100.00;100631.06;10517998;28;20071;-74
2024/01/12 15:59:58;;;;;;;8.18;5.68;;;;;;;14.93;100.00;100628.38;10520945;28;20062;-75
2024/01/12 16:05:20;;;;;;;11.45;9.10;;;;;;;14.88;100.00;100629.31;10543836;28;20048;-76
2024/01/12 16:10:45;;;;;;;7.53;6.03;;;;;;;14.84;100.00;100640.81;10526852;28;21839;-76
2024/01/12 16:16:08;;;;;;;20.00;14.25;;;;;;;14.69;100.00;100650.63;10528610;28;20060;-76
2024/01/12 16:21:32;;;;;;;34.58;28.65;;;;;;;14.66;100.00;100658.59;10514981;28;20079;-75
2024/01/12 16:26:56;;;;;;;28.77;23.30;;;;;;;14.62;100.00;100666.59;10512724;28;20048;-76
2024/01/12 16:32:19;;;;;;;9.85;7.18;;;;;;;14.62;100.00;100670.13;10529086;28;20058;-75
2024/01/12 16:37:41;;;;;;;9.68;6.40;;;;;;;14.69;100.00;100671.00;10526603;28;20055;-75
2024/01/12 16:43:06;;;;;;;30.95;25.88;;;;;;;14.70;100.00;100663.00;10537958;28;20047;-75
2024/01/12 16:48:28;;;;;;;40.75;36.70;;;;;;;14.72;100.00;100665.66;10514954;28;20063;-76
2024/01/12 16:53:50;;;;;;;21.15;17.02;;;;;;;14.71;100.00;100666.56;10509306;28;20048;-78
2024/01/12 16:59:15;;;;;;;31.60;26.65;;;;;;;14.54;100.00;100657.75;10524167;28;20067;-79
2024/01/12 17:04:38;;;;;;;35.75;29.60;;;;;;;14.49;100.00;100656.88;10528462;28;20052;-79
2024/01/12 17:10:01;;;;;;;35.90;26.10;;;;;;;14.55;100.00;100656.88;10524257;28;20065;-78
2024/01/12 17:15:25;;;;;;;31.17;22.63;;;;;;;14.32;100.00;100655.09;10520777;28;20097;-81
2024/01/12 17:20:47;;;;;;;18.48;13.68;;;;;;;14.25;100.00;100655.97;10529424;28;20059;-82
2024/01/12 17:26:10;;;;;;;15.32;6.93;;;;;;;14.36;100.00;100640.94;10508444;28;20043;-87
2024/01/12 17:31:35;;;;;;;11.98;6.47;;;;;;;14.39;100.00;100652.47;10533941;28;20044;-83
2024/01/12 17:36:57;;;;;;;12.48;7.88;;;;;;;14.16;100.00;100663.97;10497108;28;20040;-79
2024/01/12 17:42:20;;;;;;;8.98;4.25;;;;;;;14.13;100.00;100661.31;10531678;28;20056;-80
2024/01/12 17:47:44;;;;;;;44.15;31.85;;;;;;;14.07;100.00;100674.59;10552957;28;20078;-79
2024/01/12 17:53:07;;;;;;;17.52;11.60;;;;;;;14.07;100.00;100673.69;10525277;28;20543;-79
2024/01/12 17:58:29;;;;;;;19.27;15.70;;;;;;;14.00;100.00;100675.47;10517677;28;20481;-78
2024/01/12 18:03:53;;;;;;;14.25;8.48;;;;;;;13.93;100.00;100686.97;10527095;28;20048;-83
2024/01/12 18:09:15;;;;;;;5.35;3.10;;;;;;;13.88;100.00;100696.69;10534949;28;20051;-83
2024/01/12 18:14:38;;;;;;;24.27;15.27;;;;;;;13.77;100.00;100709.06;10531982;28;20055;-82
2024/01/12 18:20:02;;;;;;;29.02;15.80;;;;;;;13.63;100.00;100710.81;10517192;28;20059;-83
2024/01/12 18:25:25;;;;;;;14.63;10.95;;;;;;;13.53;100.00;100712.53;10522872;28;20659;-79
2024/01/12 18:30:47;;;;;;;15.93;8.75;;;;;;;13.46;100.00;100719.59;10534601;28;20439;-81
2024/01/12 18:36:13;;;;;;;16.00;10.43;;;;;;;13.41;100.00;100717.81;10521205;28;20044;-81
2024/01/12 18:41:37;;;;;;;11.25;3.88;;;;;;;13.39;100.00;100720.44;10518962;28;20048;-81
2024/01/12 18:47:01;;;;;;;5.22;3.78;;;;;;;13.38;100.00;100723.13;10539619;28;20052;-82
2024/01/12 18:52:25;;;;;;;12.65;5.90;;;;;;;13.30;100.00;100739.00;10534565;28;20055;-80
2024/01/12 18:57:52;;;;;;;52.17;34.15;;;;;;;13.29;100.00;100733.69;10517829;28;20048;-82
2024/01/12 19:03:14;;;;;;;8.18;4.18;;;;;;;13.33;100.00;100740.75;10519136;28;20044;-81
2024/01/12 19:08:40;;;;;;;15.80;8.02;;;;;;;13.34;100.00;100746.06;10520653;28;20052;-84
2024/01/12 19:14:02;;;;;;;63.33;39.17;;;;;;;13.42;100.00;100749.66;10524149;28;20044;-82
2024/01/12 19:19:25;;;;;;;21.73;9.57;;;;;;;13.45;100.00;100739.06;10536162;28;20109;-81
2024/01/12 19:24:51;;;;;;;20.48;10.57;;;;;;;13.49;100.00;100746.13;10528464;28;20056;-82
2024/01/12 19:30:16;;;;;;;67.72;39.50;;;;;;;13.61;100.00;100755.00;10521824;28;20051;-80
2024/01/12 19:35:38;;;;;;;38.00;27.73;;;;;;;13.64;100.00;100747.97;10522502;28;20055;-80
2024/01/12 19:41:03;;;;;;;12.05;9.13;;;;;;;13.60;100.00;100747.91;10522343;28;20056;-80
2024/01/12 19:46:25;;;;;;;18.50;11.52;;;;;;;13.62;100.00;100754.13;10535760;28;20050;-80
2024/01/12 19:51:50;;;;;;;20.20;14.45;;;;;;;13.63;100.00;100750.59;10534591;28;20383;-81
2024/01/12 19:57:14;;;;;;;40.03;29.52;;;;;;;13.63;100.00;100753.25;10536941;28;20052;-81
2024/01/12 20:02:37;;;;;;;17.52;12.68;;;;;;;13.66;100.00;100755.91;10535153;28;20048;-79
2024/01/12 20:07:59;;;;;;;19.90;11.70;;;;;;;13.67;100.00;100758.56;10521086;28;20051;-82
2024/01/12 20:13:24;;;;;;;12.57;7.35;;;;;;;13.45;100.00;100764.69;10522275;28;20048;-80
2024/01/12 20:18:49;;;;;;;17.92;8.52;;;;;;;13.49;100.00;100766.47;10530843;28;20056;-80
2024/01/12 20:24:11;;;;;;;6.72;3.47;;;;;;;13.44;100.00;100758.50;10530568;28;20040;-81
2024/01/12 20:29:35;;;;;;;8.60;4.28;;;;;;;13.39;100.00;100754.91;10510860;28;20044;-81
2024/01/12 20:34:57;;;;;;;7.18;4.35;;;;;;;13.42;100.00;100752.31;10509731;28;20206;-80
2024/01/12 20:40:20;;;;;;;5.75;3.40;;;;;;;13.43;100.00;100747.88;10509012;28;20048;-80
2024/01/12 20:45:44;;;;;;;16.52;9.27;;;;;;;13.35;100.00;100754.91;10520602;28;20101;-80
2024/01/12 20:51:07;;;;;;;7.55;3.80;;;;;;;13.39;100.00;100756.72;10530248;28;20054;-80
2024/01/12 20:56:29;;;;;;;11.70;8.23;;;;;;;13.33;100.00;100760.19;10489544;28;20106;-81
2024/01/12 21:01:53;;;;;;;4.90;3.10;;;;;;;13.27;100.00;100761.94;10536422;28;20080;-80
2024/01/12 21:07:18;;;;;;;5.93;3.75;;;;;;;13.08;100.00;100747.69;10530477;28;20044;-80
2024/01/12 21:12:41;;;;;;;7.18;4.55;;;;;;;13.05;100.00;100745.03;10519297;28;20079;-80
2024/01/12 21:18:07;;;;;;;7.75;4.22;;;;;;;13.06;100.00;100752.13;10510147;28;20356;-79
2024/01/12 21:23:29;;;;;;;8.32;6.32;;;;;;;13.03;100.00;100757.38;10517174;28;20055;-81
2024/01/12 21:28:52;;;;;;;8.18;4.20;;;;;;;13.13;100.00;100760.09;10529023;28;20064;-81
2024/01/12 21:34:15;;;;;;;13.30;7.32;;;;;;;13.28;100.00;100750.47;10510005;28;20552;-80
2024/01/12 21:39:38;;;;;;;23.70;14.85;;;;;;;13.33;100.00;100740.75;10521452;28;20543;-79
2024/01/12 21:45:01;;;;;;;22.63;14.30;;;;;;;13.32;100.00;100755.81;10486346;28;20053;-78
2024/01/12 21:50:24;;;;;;;23.10;13.07;;;;;;;13.32;100.00;100757.56;10504023;28;20044;-78
2024/01/12 21:55:47;;;;;;;26.13;15.80;;;;;;;13.39;100.00;100764.66;10537239;28;20048;-78
2024/01/12 22:01:10;;;;;;;12.20;7.70;;;;;;;13.42;100.00;100756.72;10532971;28;20052;-78
2024/01/12 22:06:34;;;;;;;17.23;8.30;;;;;;;13.47;100.00;100762.91;10548675;28;20044;-78
2024/01/12 22:11:56;;;;;;;9.40;5.82;;;;;;;13.59;100.00;100759.44;10522160;28;20044;-78
2024/01/12 22:17:19;;;;;;;14.75;8.57;;;;;;;13.61;100.00;100755.88;10501182;28;20121;-78
2024/01/12 22:22:43;;;;;;;16.40;11.70;;;;;;;13.57;100.00;100752.34;10498619;28;20082;-77
2024/01/12 22:28:06;;;;;;;17.23;13.27;;;;;;;13.59;100.00;100756.78;10517801;28;20075;-78
2024/01/12 22:33:29;;;;;;;9.60;5.97;;;;;;;13.68;100.00;100748.84;10508610;28;20048;-77
2024/01/12 22:38:53;;;;;;;8.23;5.82;;;;;;;13.79;100.00;100737.38;10520284;28;20046;-77
2024/01/12 22:44:18;;;;;;;9.90;6.72;;;;;;;13.87;100.00;100740.03;10528953;28;20098;-77
2024/01/12 22:49:40;;;;;;;7.03;4.90;;;;;;;13.94;100.00;100752.44;10501363;28;20052;-76
2024/01/12 22:55:05;;;;;;;8.45;6.15;;;;;;;13.89;100.00;100751.56;10511431;28;20048;-77
2024/01/12 23:00:31;;;;;;;17.38;11.73;;;;;;;13.72;100.00;100755.94;10530477;28;20044;-78
2024/01/12 23:05:54;;;;;;;12.02;7.40;;;;;;;13.43;100.00;100759.38;10531533;28;20164;-77
2024/01/12 23:11:18;;;;;;;20.33;9.93;;;;;;;13.48;100.00;100743.47;10517269;28;20040;-78
2024/01/12 23:16:40;;;;;;;24.45;13.50;;;;;;;13.56;100.00;100741.75;10532699;28;20496;-78
2024/01/12 23:22:02;;;;;;;22.10;15.52;;;;;;;13.79;100.00;100724.09;10518938;28;20044;-77
2024/01/12 23:27:26;;;;;;;19.58;14.10;;;;;;;13.96;100.00;100732.09;10525876;28;20140;-77
2024/01/12 23:32:49;;;;;;;14.05;8.82;;;;;;;13.97;100.00;100723.25;10491421;28;20060;-77
2024/01/12 23:38:11;;;;;;;29.25;21.98;;;;;;;13.98;100.00;100739.16;10505582;28;20056;-77
2024/01/12 23:43:35;;;;;;;11.57;6.03;;;;;;;14.09;100.00;100730.34;10493599;28;20056;-77
2024/01/12 23:48:58;;;;;;;21.48;13.80;;;;;;;14.05;100.00;100734.75;10533164;28;20052;-77
2024/01/12 23:54:21;;;;;;;8.82;4.40;;;;;;;14.08;100.00;100731.22;10532810;28;20060;-77
2024/01/12 23:59:46;;;;;;;8.15;4.95;;;;;;;14.06;100.00;100740.94;10517077;28;20050;-79
